sensor_id;sensor_type;location;lat;lon;timestamp;temperature;humidity
19017;DHT22;9641;51.494;6.670;2023-08-06T00:00:10;16.60;99.90
19017;DHT22;9641;51.494;6.670;2023-08-06T00:02:37;16.60;99.90
19017;DHT22;9641;51.494;6.670;2023-08-06T00:05:04;16.60;99.90
19017;DHT22;9641;51.494;6.670;2023-08-06T00:07:31;16.60;99.90
19017;DHT22;9641;51.494;6.670;2023-08-06T00:09:58;16.60;99.90
19017;DHT22;9641;51.494;6.670;2023-08-06T00:12:25;16.60;99.90
19017;DHT22;9641;51.494;6.670;2023-08-06T00:14:54;16.60;99.90
19017;DHT22;9641;51.494;6.670;2023-08-06T00:17:21;16.50;99.90
19017;DHT22;9641;51.494;6.670;2023-08-06T00:19:48;16.50;99.90
19017;DHT22;9641;51.494;6.670;2023-08-06T00:22:15;16.50;99.90
19017;DHT22;9641;51.494;6.670;2023-08-06T00:24:42;16.50;99.90
19017;DHT22;9641;51.494;6.670;2023-08-06T00:27:09;16.50;99.90
19017;DHT22;9641;51.494;6.670;2023-08-06T00:29:36;16.50;99.90
19017;DHT22;9641;51.494;6.670;2023-08-06T00:32:05;16.40;99.90
19017;DHT22;9641;51.494;6.670;2023-08-06T00:34:32;16.50;99.90
19017;DHT22;9641;51.494;6.670;2023-08-06T00:36:59;16.40;99.90
19017;DHT22;9641;51.494;6.670;2023-08-06T00:39:26;16.40;99.90
19017;DHT22;9641;51.494;6.670;2023-08-06T00:41:53;16.40;99.90
19017;DHT22;9641;51.494;6.670;2023-08-06T00:44:20;16.40;99.90
19017;DHT22;9641;51.494;6.670;2023-08-06T00:46:47;16.40;99.90
19017;DHT22;9641;51.494;6.670;2023-08-06T00:49:16;16.40;99.90
19017;DHT22;9641;51.494;6.670;2023-08-06T00:51:43;16.50;99.90
19017;DHT22;9641;51.494;6.670;2023-08-06T00:54:10;16.50;99.90
19017;DHT22;9641;51.494;6.670;2023-08-06T00:56:37;16.50;99.90
19017;DHT22;9641;51.494;6.670;2023-08-06T00:59:05;16.50;99.90
19017;DHT22;9641;51.494;6.670;2023-08-06T01:01:32;16.50;99.90
19017;DHT22;9641;51.494;6.670;2023-08-06T01:03:59;16.50;99.90
19017;DHT22;9641;51.494;6.670;2023-08-06T01:06:39;16.50;99.90
19017;DHT22;9641;51.494;6.670;2023-08-06T01:09:19;16.40;99.90
19017;DHT22;9641;51.494;6.670;2023-08-06T01:11:57;16.40;99.90
19017;DHT22;9641;51.494;6.670;2023-08-06T01:14:30;16.40;99.90
19017;DHT22;9641;51.494;6.670;2023-08-06T01:16:58;16.40;99.90
19017;DHT22;9641;51.494;6.670;2023-08-06T01:19:25;16.40;99.90
19017;DHT22;9641;51.494;6.670;2023-08-06T01:21:54;16.40;99.90
19017;DHT22;9641;51.494;6.670;2023-08-06T01:24:21;16.40;99.90
19017;DHT22;9641;51.494;6.670;2023-08-06T01:26:55;16.40;99.90
19017;DHT22;9641;51.494;6.670;2023-08-06T01:29:35;16.50;99.90
19017;DHT22;9641;51.494;6.670;2023-08-06T01:32:04;16.50;99.90
19017;DHT22;9641;51.494;6.670;2023-08-06T01:34:34;16.50;99.90
19017;DHT22;9641;51.494;6.670;2023-08-06T01:37:05;16.50;99.90
19017;DHT22;9641;51.494;6.670;2023-08-06T01:39:34;16.50;99.90
19017;DHT22;9641;51.494;6.670;2023-08-06T01:42:04;16.50;99.90
19017;DHT22;9641;51.494;6.670;2023-08-06T01:44:32;16.50;99.90
19017;DHT22;9641;51.494;6.670;2023-08-06T01:46:59;16.50;99.90
19017;DHT22;9641;51.494;6.670;2023-08-06T01:49:26;16.50;99.90
19017;DHT22;9641;51.494;6.670;2023-08-06T01:51:53;16.50;99.90
19017;DHT22;9641;51.494;6.670;2023-08-06T01:54:22;16.50;99.90
19017;DHT22;9641;51.494;6.670;2023-08-06T01:56:49;16.50;99.90
19017;DHT22;9641;51.494;6.670;2023-08-06T01:59:15;16.50;99.90
19017;DHT22;9641;51.494;6.670;2023-08-06T02:01:42;16.50;99.90
19017;DHT22;9641;51.494;6.670;2023-08-06T02:04:09;16.50;99.90
19017;DHT22;9641;51.494;6.670;2023-08-06T02:06:36;16.50;99.90
19017;DHT22;9641;51.494;6.670;2023-08-06T02:09:03;16.40;99.90
19017;DHT22;9641;51.494;6.670;2023-08-06T02:11:31;16.40;99.90
19017;DHT22;9641;51.494;6.670;2023-08-06T02:13:58;16.40;99.90
19017;DHT22;9641;51.494;6.670;2023-08-06T02:16:25;16.40;99.90
19017;DHT22;9641;51.494;6.670;2023-08-06T02:18:53;16.40;99.90
19017;DHT22;9641;51.494;6.670;2023-08-06T02:21:19;16.40;99.90
19017;DHT22;9641;51.494;6.670;2023-08-06T02:23:47;16.40;99.90
19017;DHT22;9641;51.494;6.670;2023-08-06T02:26:14;16.30;99.90
19017;DHT22;9641;51.494;6.670;2023-08-06T02:28:42;16.30;99.90
19017;DHT22;9641;51.494;6.670;2023-08-06T02:31:09;16.30;99.90
19017;DHT22;9641;51.494;6.670;2023-08-06T02:33:37;16.30;99.90
19017;DHT22;9641;51.494;6.670;2023-08-06T02:36:04;16.30;99.90
19017;DHT22;9641;51.494;6.670;2023-08-06T02:38:31;16.30;99.90
19017;DHT22;9641;51.494;6.670;2023-08-06T02:40:59;16.30;99.90
19017;DHT22;9641;51.494;6.670;2023-08-06T02:43:28;16.30;99.90
19017;DHT22;9641;51.494;6.670;2023-08-06T02:45:59;16.30;99.90
19017;DHT22;9641;51.494;6.670;2023-08-06T02:48:26;16.30;99.90
19017;DHT22;9641;51.494;6.670;2023-08-06T02:50:56;16.20;99.90
19017;DHT22;9641;51.494;6.670;2023-08-06T02:53:23;16.20;99.90
19017;DHT22;9641;51.494;6.670;2023-08-06T02:55:50;16.20;99.90
19017;DHT22;9641;51.494;6.670;2023-08-06T02:58:22;16.20;99.90
19017;DHT22;9641;51.494;6.670;2023-08-06T03:01:02;16.20;99.90
19017;DHT22;9641;51.494;6.670;2023-08-06T03:03:32;16.20;99.90
19017;DHT22;9641;51.494;6.670;2023-08-06T03:06:01;16.20;99.90
19017;DHT22;9641;51.494;6.670;2023-08-06T03:08:40;16.20;99.90
19017;DHT22;9641;51.494;6.670;2023-08-06T03:11:07;16.20;99.90
19017;DHT22;9641;51.494;6.670;2023-08-06T03:13:34;16.20;99.90
19017;DHT22;9641;51.494;6.670;2023-08-06T03:16:03;16.20;99.90
19017;DHT22;9641;51.494;6.670;2023-08-06T03:18:30;16.20;99.90
19017;DHT22;9641;51.494;6.670;2023-08-06T03:21:01;16.20;99.90
19017;DHT22;9641;51.494;6.670;2023-08-06T03:23:30;16.10;99.90
19017;DHT22;9641;51.494;6.670;2023-08-06T03:26:01;16.10;99.90
19017;DHT22;9641;51.494;6.670;2023-08-06T03:28:29;16.10;99.90
19017;DHT22;9641;51.494;6.670;2023-08-06T03:31:00;16.10;99.90
19017;DHT22;9641;51.494;6.670;2023-08-06T03:33:32;16.10;99.90
19017;DHT22;9641;51.494;6.670;2023-08-06T03:36:01;16.10;99.90
19017;DHT22;9641;51.494;6.670;2023-08-06T03:38:28;16.10;99.90
19017;DHT22;9641;51.494;6.670;2023-08-06T03:40:55;16.10;99.90
19017;DHT22;9641;51.494;6.670;2023-08-06T03:43:22;16.10;99.90
19017;DHT22;9641;51.494;6.670;2023-08-06T03:45:50;16.10;99.90
19017;DHT22;9641;51.494;6.670;2023-08-06T03:48:17;16.10;99.90
19017;DHT22;9641;51.494;6.670;2023-08-06T03:50:50;16.10;99.90
19017;DHT22;9641;51.494;6.670;2023-08-06T03:53:18;16.10;99.90
19017;DHT22;9641;51.494;6.670;2023-08-06T03:55:45;16.10;99.90
19017;DHT22;9641;51.494;6.670;2023-08-06T03:58:12;16.10;99.90
19017;DHT22;9641;51.494;6.670;2023-08-06T04:00:39;16.10;99.90
19017;DHT22;9641;51.494;6.670;2023-08-06T04:03:07;16.10;99.90
19017;DHT22;9641;51.494;6.670;2023-08-06T04:05:34;16.10;99.90
19017;DHT22;9641;51.494;6.670;2023-08-06T04:08:02;16.10;99.90
19017;DHT22;9641;51.494;6.670;2023-08-06T04:10:30;16.00;99.90
19017;DHT22;9641;51.494;6.670;2023-08-06T04:12:57;16.00;99.90
19017;DHT22;9641;51.494;6.670;2023-08-06T04:15:24;16.00;99.90
19017;DHT22;9641;51.494;6.670;2023-08-06T04:17:51;16.00;99.90
19017;DHT22;9641;51.494;6.670;2023-08-06T04:20:25;16.00;99.90
19017;DHT22;9641;51.494;6.670;2023-08-06T04:22:54;16.00;99.90
19017;DHT22;9641;51.494;6.670;2023-08-06T04:25:23;16.00;99.90
19017;DHT22;9641;51.494;6.670;2023-08-06T04:27:50;16.00;99.90
19017;DHT22;9641;51.494;6.670;2023-08-06T04:30:18;16.00;99.90
19017;DHT22;9641;51.494;6.670;2023-08-06T04:32:44;16.00;99.90
19017;DHT22;9641;51.494;6.670;2023-08-06T04:35:12;16.00;99.90
19017;DHT22;9641;51.494;6.670;2023-08-06T04:37:40;16.00;99.90
19017;DHT22;9641;51.494;6.670;2023-08-06T04:40:08;16.10;99.90
19017;DHT22;9641;51.494;6.670;2023-08-06T04:42:36;16.10;99.90
19017;DHT22;9641;51.494;6.670;2023-08-06T04:45:04;16.10;99.90
19017;DHT22;9641;51.494;6.670;2023-08-06T04:47:31;16.20;99.90
19017;DHT22;9641;51.494;6.670;2023-08-06T04:49:58;16.20;99.90
19017;DHT22;9641;51.494;6.670;2023-08-06T04:52:25;16.20;99.90
19017;DHT22;9641;51.494;6.670;2023-08-06T04:54:54;16.20;99.90
19017;DHT22;9641;51.494;6.670;2023-08-06T04:57:21;16.30;99.90
19017;DHT22;9641;51.494;6.670;2023-08-06T04:59:49;16.30;99.90
19017;DHT22;9641;51.494;6.670;2023-08-06T05:02:16;16.30;99.90
19017;DHT22;9641;51.494;6.670;2023-08-06T05:04:43;16.30;99.90
19017;DHT22;9641;51.494;6.670;2023-08-06T05:07:10;16.40;99.90
19017;DHT22;9641;51.494;6.670;2023-08-06T05:09:38;16.40;99.90
19017;DHT22;9641;51.494;6.670;2023-08-06T05:12:05;16.50;99.90
19017;DHT22;9641;51.494;6.670;2023-08-06T05:14:33;16.50;99.90
19017;DHT22;9641;51.494;6.670;2023-08-06T05:17:01;16.50;99.90
19017;DHT22;9641;51.494;6.670;2023-08-06T05:19:33;16.50;99.90
19017;DHT22;9641;51.494;6.670;2023-08-06T05:22:00;16.60;99.90
19017;DHT22;9641;51.494;6.670;2023-08-06T05:24:28;16.70;99.90
19017;DHT22;9641;51.494;6.670;2023-08-06T05:26:55;16.70;99.90
19017;DHT22;9641;51.494;6.670;2023-08-06T05:29:22;16.70;99.90
19017;DHT22;9641;51.494;6.670;2023-08-06T05:31:49;16.80;99.90
19017;DHT22;9641;51.494;6.670;2023-08-06T05:34:18;16.80;99.90
19017;DHT22;9641;51.494;6.670;2023-08-06T05:36:46;16.80;99.90
19017;DHT22;9641;51.494;6.670;2023-08-06T05:39:13;16.80;99.90
19017;DHT22;9641;51.494;6.670;2023-08-06T05:41:40;16.90;99.90
19017;DHT22;9641;51.494;6.670;2023-08-06T05:44:07;16.90;99.90
19017;DHT22;9641;51.494;6.670;2023-08-06T05:46:34;17.00;99.90
19017;DHT22;9641;51.494;6.670;2023-08-06T05:49:01;17.00;99.90
19017;DHT22;9641;51.494;6.670;2023-08-06T05:51:30;17.00;99.90
19017;DHT22;9641;51.494;6.670;2023-08-06T05:53:57;17.00;99.90
19017;DHT22;9641;51.494;6.670;2023-08-06T05:56:24;17.00;99.90
19017;DHT22;9641;51.494;6.670;2023-08-06T05:58:51;17.00;99.90
19017;DHT22;9641;51.494;6.670;2023-08-06T06:01:18;17.10;99.90
19017;DHT22;9641;51.494;6.670;2023-08-06T06:03:45;17.10;99.90
19017;DHT22;9641;51.494;6.670;2023-08-06T06:06:12;17.20;99.90
19017;DHT22;9641;51.494;6.670;2023-08-06T06:08:41;17.20;99.90
19017;DHT22;9641;51.494;6.670;2023-08-06T06:11:08;17.30;99.90
19017;DHT22;9641;51.494;6.670;2023-08-06T06:13:35;17.20;99.90
19017;DHT22;9641;51.494;6.670;2023-08-06T06:16:02;17.30;99.90
19017;DHT22;9641;51.494;6.670;2023-08-06T06:18:29;17.30;99.90
19017;DHT22;9641;51.494;6.670;2023-08-06T06:20:56;17.40;99.90
19017;DHT22;9641;51.494;6.670;2023-08-06T06:23:23;17.40;99.90
19017;DHT22;9641;51.494;6.670;2023-08-06T06:25:51;17.50;99.90
19017;DHT22;9641;51.494;6.670;2023-08-06T06:28:18;17.50;99.90
19017;DHT22;9641;51.494;6.670;2023-08-06T06:30:45;17.60;99.90
19017;DHT22;9641;51.494;6.670;2023-08-06T06:33:12;17.60;99.90
19017;DHT22;9641;51.494;6.670;2023-08-06T06:35:39;17.60;99.90
19017;DHT22;9641;51.494;6.670;2023-08-06T06:38:06;17.70;99.90
19017;DHT22;9641;51.494;6.670;2023-08-06T06:40:33;17.70;99.90
19017;DHT22;9641;51.494;6.670;2023-08-06T06:43:02;17.60;99.90
19017;DHT22;9641;51.494;6.670;2023-08-06T06:45:33;17.60;99.90
19017;DHT22;9641;51.494;6.670;2023-08-06T06:48:00;17.60;99.90
19017;DHT22;9641;51.494;6.670;2023-08-06T06:50:27;17.60;99.90
19017;DHT22;9641;51.494;6.670;2023-08-06T06:52:54;17.60;99.90
19017;DHT22;9641;51.494;6.670;2023-08-06T06:55:21;17.60;99.90
19017;DHT22;9641;51.494;6.670;2023-08-06T06:57:48;17.60;99.90
19017;DHT22;9641;51.494;6.670;2023-08-06T07:00:17;17.50;99.90
19017;DHT22;9641;51.494;6.670;2023-08-06T07:02:44;17.60;99.90
19017;DHT22;9641;51.494;6.670;2023-08-06T07:05:11;17.70;99.90
19017;DHT22;9641;51.494;6.670;2023-08-06T07:07:38;17.60;99.90
19017;DHT22;9641;51.494;6.670;2023-08-06T07:10:06;17.50;99.90
19017;DHT22;9641;51.494;6.670;2023-08-06T07:12:35;17.40;99.90
19017;DHT22;9641;51.494;6.670;2023-08-06T07:15:13;17.50;99.90
19017;DHT22;9641;51.494;6.670;2023-08-06T07:17:42;17.50;99.90
19017;DHT22;9641;51.494;6.670;2023-08-06T07:20:10;17.50;99.90
19017;DHT22;9641;51.494;6.670;2023-08-06T07:22:37;17.50;99.90
19017;DHT22;9641;51.494;6.670;2023-08-06T07:25:04;17.50;99.90
19017;DHT22;9641;51.494;6.670;2023-08-06T07:27:32;17.50;99.90
19017;DHT22;9641;51.494;6.670;2023-08-06T07:29:59;17.40;99.90
19017;DHT22;9641;51.494;6.670;2023-08-06T07:32:26;17.50;99.90
19017;DHT22;9641;51.494;6.670;2023-08-06T07:34:55;17.50;99.90
19017;DHT22;9641;51.494;6.670;2023-08-06T07:37:26;17.50;99.90
19017;DHT22;9641;51.494;6.670;2023-08-06T07:39:54;17.50;99.90
19017;DHT22;9641;51.494;6.670;2023-08-06T07:42:21;17.40;99.90
19017;DHT22;9641;51.494;6.670;2023-08-06T07:44:51;17.40;99.90
19017;DHT22;9641;51.494;6.670;2023-08-06T07:47:18;17.40;99.90
19017;DHT22;9641;51.494;6.670;2023-08-06T07:49:45;17.40;99.90
19017;DHT22;9641;51.494;6.670;2023-08-06T07:52:13;17.60;99.90
19017;DHT22;9641;51.494;6.670;2023-08-06T07:54:41;17.70;99.90
19017;DHT22;9641;51.494;6.670;2023-08-06T07:57:08;17.90;99.90
19017;DHT22;9641;51.494;6.670;2023-08-06T07:59:34;18.00;99.90
19017;DHT22;9641;51.494;6.670;2023-08-06T08:02:01;18.20;99.90
19017;DHT22;9641;51.494;6.670;2023-08-06T08:04:29;18.20;99.90
19017;DHT22;9641;51.494;6.670;2023-08-06T08:06:56;18.30;99.90
19017;DHT22;9641;51.494;6.670;2023-08-06T08:09:24;18.40;99.90
19017;DHT22;9641;51.494;6.670;2023-08-06T08:11:51;18.30;99.90
19017;DHT22;9641;51.494;6.670;2023-08-06T08:14:19;18.30;99.90
19017;DHT22;9641;51.494;6.670;2023-08-06T08:16:46;18.50;99.90
19017;DHT22;9641;51.494;6.670;2023-08-06T08:19:13;18.60;99.90
19017;DHT22;9641;51.494;6.670;2023-08-06T08:21:44;18.70;99.90
19017;DHT22;9641;51.494;6.670;2023-08-06T08:24:11;18.90;99.90
19017;DHT22;9641;51.494;6.670;2023-08-06T08:26:39;19.10;99.90
19017;DHT22;9641;51.494;6.670;2023-08-06T08:29:06;19.20;99.90
19017;DHT22;9641;51.494;6.670;2023-08-06T08:31:34;19.20;99.90
19017;DHT22;9641;51.494;6.670;2023-08-06T08:34:05;19.10;96.10
19017;DHT22;9641;51.494;6.670;2023-08-06T08:36:32;19.00;74.50
19017;DHT22;9641;51.494;6.670;2023-08-06T08:38:59;18.80;99.90
19017;DHT22;9641;51.494;6.670;2023-08-06T08:41:28;18.70;99.90
19017;DHT22;9641;51.494;6.670;2023-08-06T08:43:58;18.60;99.90
19017;DHT22;9641;51.494;6.670;2023-08-06T08:46:27;18.50;99.90
19017;DHT22;9641;51.494;6.670;2023-08-06T08:48:56;18.40;99.90
19017;DHT22;9641;51.494;6.670;2023-08-06T08:51:25;18.40;99.90
19017;DHT22;9641;51.494;6.670;2023-08-06T08:53:54;18.30;99.90
19017;DHT22;9641;51.494;6.670;2023-08-06T08:56:23;18.30;99.90
19017;DHT22;9641;51.494;6.670;2023-08-06T08:58:50;18.20;99.90
19017;DHT22;9641;51.494;6.670;2023-08-06T09:01:20;18.10;99.90
19017;DHT22;9641;51.494;6.670;2023-08-06T09:03:50;18.00;99.90
19017;DHT22;9641;51.494;6.670;2023-08-06T09:06:19;18.00;99.90
19017;DHT22;9641;51.494;6.670;2023-08-06T09:08:50;17.90;99.90
19017;DHT22;9641;51.494;6.670;2023-08-06T09:11:19;18.00;99.90
19017;DHT22;9641;51.494;6.670;2023-08-06T09:13:47;17.90;99.90
19017;DHT22;9641;51.494;6.670;2023-08-06T09:16:14;17.80;99.90
19017;DHT22;9641;51.494;6.670;2023-08-06T09:18:43;17.80;99.90
19017;DHT22;9641;51.494;6.670;2023-08-06T09:21:14;17.70;99.90
19017;DHT22;9641;51.494;6.670;2023-08-06T09:23:41;17.60;99.90
19017;DHT22;9641;51.494;6.670;2023-08-06T09:26:11;17.70;99.90
19017;DHT22;9641;51.494;6.670;2023-08-06T09:28:39;17.80;99.90
19017;DHT22;9641;51.494;6.670;2023-08-06T09:31:08;17.90;99.90
19017;DHT22;9641;51.494;6.670;2023-08-06T09:33:37;17.90;99.90
19017;DHT22;9641;51.494;6.670;2023-08-06T09:36:10;18.00;99.90
19017;DHT22;9641;51.494;6.670;2023-08-06T09:38:38;18.20;99.90
19017;DHT22;9641;51.494;6.670;2023-08-06T09:41:05;18.20;99.90
19017;DHT22;9641;51.494;6.670;2023-08-06T09:43:40;18.40;99.90
19017;DHT22;9641;51.494;6.670;2023-08-06T09:46:11;18.40;99.90
19017;DHT22;9641;51.494;6.670;2023-08-06T09:48:40;18.50;99.90
19017;DHT22;9641;51.494;6.670;2023-08-06T09:51:09;18.50;99.90
19017;DHT22;9641;51.494;6.670;2023-08-06T09:53:37;18.50;99.90
19017;DHT22;9641;51.494;6.670;2023-08-06T09:56:06;18.60;99.90
19017;DHT22;9641;51.494;6.670;2023-08-06T09:58:33;18.70;99.90
19017;DHT22;9641;51.494;6.670;2023-08-06T10:01:01;18.70;99.90
19017;DHT22;9641;51.494;6.670;2023-08-06T10:03:34;18.80;99.90
19017;DHT22;9641;51.494;6.670;2023-08-06T10:06:02;18.90;99.90
19017;DHT22;9641;51.494;6.670;2023-08-06T10:08:34;18.90;99.90
19017;DHT22;9641;51.494;6.670;2023-08-06T10:11:02;19.00;99.90
19017;DHT22;9641;51.494;6.670;2023-08-06T10:13:32;19.20;99.90
19017;DHT22;9641;51.494;6.670;2023-08-06T10:16:00;19.20;99.90
19017;DHT22;9641;51.494;6.670;2023-08-06T10:18:28;19.30;99.90
19017;DHT22;9641;51.494;6.670;2023-08-06T10:20:55;19.40;99.90
19017;DHT22;9641;51.494;6.670;2023-08-06T10:23:35;19.50;99.90
19017;DHT22;9641;51.494;6.670;2023-08-06T10:26:04;19.60;99.90
19017;DHT22;9641;51.494;6.670;2023-08-06T10:28:36;19.70;98.70
19017;DHT22;9641;51.494;6.670;2023-08-06T10:31:04;19.60;94.20
19017;DHT22;9641;51.494;6.670;2023-08-06T10:33:44;19.50;99.90
19017;DHT22;9641;51.494;6.670;2023-08-06T10:36:12;19.40;99.90
19017;DHT22;9641;51.494;6.670;2023-08-06T10:38:48;19.30;99.90
19017;DHT22;9641;51.494;6.670;2023-08-06T10:41:17;19.00;99.90
19017;DHT22;9641;51.494;6.670;2023-08-06T10:43:47;18.50;99.90
19017;DHT22;9641;51.494;6.670;2023-08-06T10:46:22;18.10;99.90
19017;DHT22;9641;51.494;6.670;2023-08-06T10:48:49;17.70;99.90
19017;DHT22;9641;51.494;6.670;2023-08-06T10:51:17;17.40;99.90
19017;DHT22;9641;51.494;6.670;2023-08-06T10:53:48;17.10;99.90
19017;DHT22;9641;51.494;6.670;2023-08-06T10:56:17;17.00;99.90
19017;DHT22;9641;51.494;6.670;2023-08-06T10:58:45;16.70;99.90
19017;DHT22;9641;51.494;6.670;2023-08-06T11:01:12;16.50;99.90
19017;DHT22;9641;51.494;6.670;2023-08-06T11:03:40;16.30;99.90
19017;DHT22;9641;51.494;6.670;2023-08-06T11:06:07;16.10;99.90
19017;DHT22;9641;51.494;6.670;2023-08-06T11:08:35;16.00;99.90
19017;DHT22;9641;51.494;6.670;2023-08-06T11:11:16;16.00;99.90
19017;DHT22;9641;51.494;6.670;2023-08-06T11:13:47;15.90;99.90
19017;DHT22;9641;51.494;6.670;2023-08-06T11:16:16;15.80;99.90
19017;DHT22;9641;51.494;6.670;2023-08-06T11:18:44;15.70;99.90
19017;DHT22;9641;51.494;6.670;2023-08-06T11:21:11;15.60;99.90
19017;DHT22;9641;51.494;6.670;2023-08-06T11:23:39;15.60;99.90
19017;DHT22;9641;51.494;6.670;2023-08-06T11:26:07;15.60;99.90
19017;DHT22;9641;51.494;6.670;2023-08-06T11:28:35;15.50;99.90
19017;DHT22;9641;51.494;6.670;2023-08-06T11:31:02;15.50;99.90
19017;DHT22;9641;51.494;6.670;2023-08-06T11:33:29;15.50;99.90
19017;DHT22;9641;51.494;6.670;2023-08-06T11:35:58;15.60;99.90
19017;DHT22;9641;51.494;6.670;2023-08-06T11:38:29;15.60;99.90
19017;DHT22;9641;51.494;6.670;2023-08-06T11:40:56;15.60;99.90
19017;DHT22;9641;51.494;6.670;2023-08-06T11:43:30;15.70;99.90
19017;DHT22;9641;51.494;6.670;2023-08-06T11:46:01;15.90;99.90
19017;DHT22;9641;51.494;6.670;2023-08-06T11:48:33;16.00;99.90
19017;DHT22;9641;51.494;6.670;2023-08-06T11:51:48;16.20;99.90
19017;DHT22;9641;51.494;6.670;2023-08-06T11:54:16;16.30;99.90
19017;DHT22;9641;51.494;6.670;2023-08-06T11:56:46;16.20;99.90
19017;DHT22;9641;51.494;6.670;2023-08-06T11:59:22;16.20;99.90
19017;DHT22;9641;51.494;6.670;2023-08-06T12:01:52;16.30;99.90
19017;DHT22;9641;51.494;6.670;2023-08-06T12:04:19;16.30;99.90
19017;DHT22;9641;51.494;6.670;2023-08-06T12:06:46;16.30;99.90
19017;DHT22;9641;51.494;6.670;2023-08-06T12:09:13;16.40;99.90
19017;DHT22;9641;51.494;6.670;2023-08-06T12:11:40;16.30;99.90
19017;DHT22;9641;51.494;6.670;2023-08-06T12:14:07;16.30;99.90
19017;DHT22;9641;51.494;6.670;2023-08-06T12:16:34;16.30;99.90
19017;DHT22;9641;51.494;6.670;2023-08-06T12:19:03;16.40;99.90
19017;DHT22;9641;51.494;6.670;2023-08-06T12:21:31;16.50;99.90
19017;DHT22;9641;51.494;6.670;2023-08-06T12:23:58;16.50;99.90
19017;DHT22;9641;51.494;6.670;2023-08-06T12:26:25;16.40;99.90
19017;DHT22;9641;51.494;6.670;2023-08-06T12:28:52;16.30;99.90
19017;DHT22;9641;51.494;6.670;2023-08-06T12:31:21;16.30;99.90
19017;DHT22;9641;51.494;6.670;2023-08-06T12:33:47;16.20;99.90
19017;DHT22;9641;51.494;6.670;2023-08-06T12:36:17;16.20;99.90
19017;DHT22;9641;51.494;6.670;2023-08-06T12:38:44;16.20;99.90
19017;DHT22;9641;51.494;6.670;2023-08-06T12:41:14;16.20;99.90
19017;DHT22;9641;51.494;6.670;2023-08-06T12:43:41;16.30;99.90
19017;DHT22;9641;51.494;6.670;2023-08-06T12:46:08;16.20;99.90
19017;DHT22;9641;51.494;6.670;2023-08-06T12:48:35;16.20;99.90
19017;DHT22;9641;51.494;6.670;2023-08-06T12:51:02;16.30;99.90
19017;DHT22;9641;51.494;6.670;2023-08-06T12:53:31;16.30;99.90
19017;DHT22;9641;51.494;6.670;2023-08-06T12:55:58;16.20;99.90
19017;DHT22;9641;51.494;6.670;2023-08-06T12:58:26;16.20;99.90
19017;DHT22;9641;51.494;6.670;2023-08-06T13:00:53;16.20;99.90
19017;DHT22;9641;51.494;6.670;2023-08-06T13:03:21;16.10;99.90
19017;DHT22;9641;51.494;6.670;2023-08-06T13:05:48;16.20;99.90
19017;DHT22;9641;51.494;6.670;2023-08-06T13:08:15;16.30;99.90
19017;DHT22;9641;51.494;6.670;2023-08-06T13:10:44;16.30;99.90
19017;DHT22;9641;51.494;6.670;2023-08-06T13:13:11;16.50;99.90
19017;DHT22;9641;51.494;6.670;2023-08-06T13:15:38;16.70;99.90
19017;DHT22;9641;51.494;6.670;2023-08-06T13:18:05;16.80;99.90
19017;DHT22;9641;51.494;6.670;2023-08-06T13:20:33;17.00;99.90
19017;DHT22;9641;51.494;6.670;2023-08-06T13:23:00;17.20;99.90
19017;DHT22;9641;51.494;6.670;2023-08-06T13:25:27;17.30;99.90
19017;DHT22;9641;51.494;6.670;2023-08-06T13:27:56;17.70;99.90
19017;DHT22;9641;51.494;6.670;2023-08-06T13:30:24;18.00;99.90
19017;DHT22;9641;51.494;6.670;2023-08-06T13:32:54;18.40;99.90
19017;DHT22;9641;51.494;6.670;2023-08-06T13:35:27;18.80;99.90
19017;DHT22;9641;51.494;6.670;2023-08-06T13:37:54;19.20;99.90
19017;DHT22;9641;51.494;6.670;2023-08-06T13:40:21;19.50;99.90
19017;DHT22;9641;51.494;6.670;2023-08-06T13:42:48;18.80;99.90
19017;DHT22;9641;51.494;6.670;2023-08-06T13:45:17;18.60;99.90
19017;DHT22;9641;51.494;6.670;2023-08-06T13:47:47;18.40;99.90
19017;DHT22;9641;51.494;6.670;2023-08-06T13:50:17;18.10;99.90
19017;DHT22;9641;51.494;6.670;2023-08-06T13:52:44;17.80;99.90
19017;DHT22;9641;51.494;6.670;2023-08-06T13:55:11;17.60;99.90
19017;DHT22;9641;51.494;6.670;2023-08-06T13:57:39;17.70;99.90
19017;DHT22;9641;51.494;6.670;2023-08-06T14:00:07;17.70;99.90
19017;DHT22;9641;51.494;6.670;2023-08-06T14:02:43;17.70;99.90
19017;DHT22;9641;51.494;6.670;2023-08-06T14:05:12;17.60;99.90
19017;DHT22;9641;51.494;6.670;2023-08-06T14:07:39;17.70;99.90
19017;DHT22;9641;51.494;6.670;2023-08-06T14:10:07;17.60;99.90
19017;DHT22;9641;51.494;6.670;2023-08-06T14:12:35;17.60;99.90
19017;DHT22;9641;51.494;6.670;2023-08-06T14:15:03;17.50;99.90
19017;DHT22;9641;51.494;6.670;2023-08-06T14:17:32;17.40;99.90
19017;DHT22;9641;51.494;6.670;2023-08-06T14:20:01;17.50;99.90
19017;DHT22;9641;51.494;6.670;2023-08-06T14:22:30;17.40;99.90
19017;DHT22;9641;51.494;6.670;2023-08-06T14:24:57;17.50;99.90
19017;DHT22;9641;51.494;6.670;2023-08-06T14:27:24;17.40;99.90
19017;DHT22;9641;51.494;6.670;2023-08-06T14:29:54;17.50;99.90
19017;DHT22;9641;51.494;6.670;2023-08-06T14:32:21;17.50;99.90
19017;DHT22;9641;51.494;6.670;2023-08-06T14:34:48;17.50;99.90
19017;DHT22;9641;51.494;6.670;2023-08-06T14:37:17;17.70;99.90
19017;DHT22;9641;51.494;6.670;2023-08-06T14:39:44;18.10;99.90
19017;DHT22;9641;51.494;6.670;2023-08-06T14:42:11;19.00;99.90
19017;DHT22;9641;51.494;6.670;2023-08-06T14:44:38;19.80;99.90
19017;DHT22;9641;51.494;6.670;2023-08-06T14:47:06;20.70;1.00
19017;DHT22;9641;51.494;6.670;2023-08-06T14:49:34;21.30;1.00
19017;DHT22;9641;51.494;6.670;2023-08-06T14:52:01;21.30;1.00
19017;DHT22;9641;51.494;6.670;2023-08-06T14:54:29;20.60;1.00
19017;DHT22;9641;51.494;6.670;2023-08-06T14:56:57;20.10;1.00
19017;DHT22;9641;51.494;6.670;2023-08-06T14:59:24;19.70;1.00
19017;DHT22;9641;51.494;6.670;2023-08-06T15:01:51;19.40;19.90
19017;DHT22;9641;51.494;6.670;2023-08-06T15:04:18;19.10;1.00
19017;DHT22;9641;51.494;6.670;2023-08-06T15:06:46;18.90;64.10
19017;DHT22;9641;51.494;6.670;2023-08-06T15:09:13;18.50;94.60
19017;DHT22;9641;51.494;6.670;2023-08-06T15:11:41;18.30;99.90
19017;DHT22;9641;51.494;6.670;2023-08-06T15:14:08;18.30;99.90
19017;DHT22;9641;51.494;6.670;2023-08-06T15:16:35;18.40;99.90
19017;DHT22;9641;51.494;6.670;2023-08-06T15:19:03;18.30;99.90
19017;DHT22;9641;51.494;6.670;2023-08-06T15:21:30;18.30;99.90
19017;DHT22;9641;51.494;6.670;2023-08-06T15:23:57;18.30;99.90
19017;DHT22;9641;51.494;6.670;2023-08-06T15:26:24;18.40;99.90
19017;DHT22;9641;51.494;6.670;2023-08-06T15:28:53;18.40;99.90
19017;DHT22;9641;51.494;6.670;2023-08-06T15:31:20;18.30;99.90
19017;DHT22;9641;51.494;6.670;2023-08-06T15:33:48;18.10;99.90
19017;DHT22;9641;51.494;6.670;2023-08-06T15:36:15;18.00;99.90
19017;DHT22;9641;51.494;6.670;2023-08-06T15:38:42;17.90;99.90
19017;DHT22;9641;51.494;6.670;2023-08-06T15:41:09;17.70;99.90
19017;DHT22;9641;51.494;6.670;2023-08-06T15:43:37;17.70;99.90
19017;DHT22;9641;51.494;6.670;2023-08-06T15:46:05;17.70;99.90
19017;DHT22;9641;51.494;6.670;2023-08-06T15:48:32;17.60;99.90
19017;DHT22;9641;51.494;6.670;2023-08-06T15:50:59;17.50;99.90
19017;DHT22;9641;51.494;6.670;2023-08-06T15:53:27;17.20;99.90